sensor_id;sensor_type;location;lat;lon;timestamp;P1;durP1;ratioP1;P2;durP2;ratioP2
9759;SDS011;4919;48.792;9.202;2023-02-02T00:02:28;13.03;;;3.00;;
9759;SDS011;4919;48.792;9.202;2023-02-02T00:05:13;10.70;;;2.50;;
9759;SDS011;4919;48.792;9.202;2023-02-02T00:07:58;10.27;;;2.57;;
9759;SDS011;4919;48.792;9.202;2023-02-02T00:10:43;11.10;;;2.60;;
9759;SDS011;4919;48.792;9.202;2023-02-02T00:13:28;16.07;;;2.63;;
9759;SDS011;4919;48.792;9.202;2023-02-02T00:19:12;8.70;;;1.87;;
9759;SDS011;4919;48.792;9.202;2023-02-02T00:21:59;8.67;;;2.13;;
9759;SDS011;4919;48.792;9.202;2023-02-02T00:24:44;14.93;;;3.23;;
9759;SDS011;4919;48.792;9.202;2023-02-02T00:27:28;7.37;;;2.47;;
9759;SDS011;4919;48.792;9.202;2023-02-02T00:30:13;12.20;;;2.50;;
9759;SDS011;4919;48.792;9.202;2023-02-02T00:32:58;21.40;;;3.70;;
9759;SDS011;4919;48.792;9.202;2023-02-02T00:35:43;10.10;;;2.10;;
9759;SDS011;4919;48.792;9.202;2023-02-02T00:38:28;13.43;;;2.70;;
9759;SDS011;4919;48.792;9.202;2023-02-02T00:41:14;13.20;;;2.67;;
9759;SDS011;4919;48.792;9.202;2023-02-02T00:43:59;8.13;;;2.33;;
9759;SDS011;4919;48.792;9.202;2023-02-02T00:46:44;13.50;;;3.13;;
9759;SDS011;4919;48.792;9.202;2023-02-02T00:49:29;8.40;;;2.07;;
9759;SDS011;4919;48.792;9.202;2023-02-02T00:52:13;11.33;;;2.80;;
9759;SDS011;4919;48.792;9.202;2023-02-02T00:54:58;12.17;;;2.50;;
9759;SDS011;4919;48.792;9.202;2023-02-02T00:57:43;12.63;;;2.50;;
9759;SDS011;4919;48.792;9.202;2023-02-02T01:00:28;11.47;;;2.33;;
9759;SDS011;4919;48.792;9.202;2023-02-02T01:03:13;10.23;;;2.60;;
9759;SDS011;4919;48.792;9.202;2023-02-02T01:05:58;10.50;;;1.97;;
9759;SDS011;4919;48.792;9.202;2023-02-02T01:08:43;7.80;;;2.20;;
9759;SDS011;4919;48.792;9.202;2023-02-02T01:11:28;11.80;;;2.67;;
9759;SDS011;4919;48.792;9.202;2023-02-02T01:14:12;8.43;;;2.50;;
9759;SDS011;4919;48.792;9.202;2023-02-02T01:16:58;11.80;;;2.67;;
9759;SDS011;4919;48.792;9.202;2023-02-02T01:19:42;17.00;;;2.70;;
9759;SDS011;4919;48.792;9.202;2023-02-02T01:22:28;13.43;;;3.00;;
9759;SDS011;4919;48.792;9.202;2023-02-02T01:25:13;11.53;;;2.67;;
9759;SDS011;4919;48.792;9.202;2023-02-02T01:27:58;10.40;;;2.53;;
9759;SDS011;4919;48.792;9.202;2023-02-02T01:30:43;11.07;;;2.70;;
9759;SDS011;4919;48.792;9.202;2023-02-02T01:33:27;10.07;;;2.57;;
9759;SDS011;4919;48.792;9.202;2023-02-02T01:36:14;10.07;;;2.60;;
9759;SDS011;4919;48.792;9.202;2023-02-02T01:39:01;14.77;;;3.20;;
9759;SDS011;4919;48.792;9.202;2023-02-02T01:41:46;8.63;;;2.23;;
9759;SDS011;4919;48.792;9.202;2023-02-02T01:47:53;5.33;;;1.87;;
9759;SDS011;4919;48.792;9.202;2023-02-02T01:50:41;11.60;;;2.77;;
9759;SDS011;4919;48.792;9.202;2023-02-02T01:53:27;12.77;;;2.57;;
9759;SDS011;4919;48.792;9.202;2023-02-02T01:56:13;11.73;;;2.17;;
9759;SDS011;4919;48.792;9.202;2023-02-02T01:59:01;9.30;;;2.50;;
9759;SDS011;4919;48.792;9.202;2023-02-02T02:01:48;12.73;;;2.40;;
9759;SDS011;4919;48.792;9.202;2023-02-02T02:04:35;11.67;;;2.73;;
9759;SDS011;4919;48.792;9.202;2023-02-02T02:07:20;11.60;;;2.60;;
9759;SDS011;4919;48.792;9.202;2023-02-02T02:10:06;15.87;;;3.00;;
9759;SDS011;4919;48.792;9.202;2023-02-02T02:12:51;14.53;;;3.17;;
9759;SDS011;4919;48.792;9.202;2023-02-02T02:15:39;14.50;;;2.53;;
9759;SDS011;4919;48.792;9.202;2023-02-02T02:28:19;10.20;;;2.40;;
9759;SDS011;4919;48.792;9.202;2023-02-02T02:31:25;12.43;;;2.50;;
9759;SDS011;4919;48.792;9.202;2023-02-02T02:34:21;12.47;;;2.63;;
9759;SDS011;4919;48.792;9.202;2023-02-02T02:40:56;13.17;;;2.80;;
9759;SDS011;4919;48.792;9.202;2023-02-02T02:43:47;13.23;;;2.83;;
9759;SDS011;4919;48.792;9.202;2023-02-02T02:46:36;10.67;;;2.40;;
9759;SDS011;4919;48.792;9.202;2023-02-02T02:49:22;10.63;;;2.87;;
9759;SDS011;4919;48.792;9.202;2023-02-02T02:52:06;9.23;;;2.37;;
9759;SDS011;4919;48.792;9.202;2023-02-02T02:54:53;8.33;;;2.30;;
9759;SDS011;4919;48.792;9.202;2023-02-02T03:00:57;10.60;;;2.57;;
9759;SDS011;4919;48.792;9.202;2023-02-02T03:07:28;10.57;;;2.07;;
9759;SDS011;4919;48.792;9.202;2023-02-02T03:10:21;10.87;;;2.40;;
9759;SDS011;4919;48.792;9.202;2023-02-02T03:13:11;11.07;;;2.30;;
9759;SDS011;4919;48.792;9.202;2023-02-02T03:15:57;8.50;;;2.30;;
9759;SDS011;4919;48.792;9.202;2023-02-02T03:18:42;10.93;;;3.23;;
9759;SDS011;4919;48.792;9.202;2023-02-02T03:21:28;13.70;;;2.70;;
9759;SDS011;4919;48.792;9.202;2023-02-02T03:24:12;9.17;;;2.50;;
9759;SDS011;4919;48.792;9.202;2023-02-02T03:26:57;11.30;;;2.43;;
9759;SDS011;4919;48.792;9.202;2023-02-02T03:29:42;11.17;;;2.67;;
9759;SDS011;4919;48.792;9.202;2023-02-02T03:32:27;9.03;;;2.10;;
9759;SDS011;4919;48.792;9.202;2023-02-02T03:35:12;9.40;;;2.53;;
9759;SDS011;4919;48.792;9.202;2023-02-02T03:37:57;9.20;;;1.87;;
9759;SDS011;4919;48.792;9.202;2023-02-02T03:40:42;7.70;;;2.03;;
9759;SDS011;4919;48.792;9.202;2023-02-02T03:43:26;8.17;;;2.00;;
9759;SDS011;4919;48.792;9.202;2023-02-02T03:46:11;9.03;;;2.27;;
9759;SDS011;4919;48.792;9.202;2023-02-02T03:48:56;10.17;;;1.90;;
9759;SDS011;4919;48.792;9.202;2023-02-02T03:51:41;13.07;;;2.83;;
9759;SDS011;4919;48.792;9.202;2023-02-02T03:54:26;8.73;;;1.93;;
9759;SDS011;4919;48.792;9.202;2023-02-02T03:57:11;8.83;;;2.13;;
9759;SDS011;4919;48.792;9.202;2023-02-02T03:59:56;5.27;;;1.70;;
9759;SDS011;4919;48.792;9.202;2023-02-02T04:02:41;6.33;;;1.47;;
9759;SDS011;4919;48.792;9.202;2023-02-02T04:05:26;6.30;;;1.57;;
9759;SDS011;4919;48.792;9.202;2023-02-02T04:08:11;6.50;;;1.83;;
9759;SDS011;4919;48.792;9.202;2023-02-02T04:10:56;1.67;;;1.07;;
9759;SDS011;4919;48.792;9.202;2023-02-02T04:13:41;7.13;;;2.20;;
9759;SDS011;4919;48.792;9.202;2023-02-02T04:16:26;5.70;;;2.00;;
9759;SDS011;4919;48.792;9.202;2023-02-02T04:19:10;5.73;;;1.70;;
9759;SDS011;4919;48.792;9.202;2023-02-02T04:21:56;7.33;;;1.90;;
9759;SDS011;4919;48.792;9.202;2023-02-02T04:24:41;9.17;;;1.70;;
9759;SDS011;4919;48.792;9.202;2023-02-02T04:27:25;12.10;;;1.90;;
9759;SDS011;4919;48.792;9.202;2023-02-02T04:30:10;13.07;;;2.00;;
9759;SDS011;4919;48.792;9.202;2023-02-02T04:32:55;6.40;;;1.70;;
9759;SDS011;4919;48.792;9.202;2023-02-02T04:35:43;7.33;;;1.80;;
9759;SDS011;4919;48.792;9.202;2023-02-02T04:38:28;7.07;;;1.60;;
9759;SDS011;4919;48.792;9.202;2023-02-02T04:41:13;9.27;;;2.17;;
9759;SDS011;4919;48.792;9.202;2023-02-02T04:43:58;3.70;;;1.70;;
9759;SDS011;4919;48.792;9.202;2023-02-02T04:46:43;4.90;;;1.63;;
9759;SDS011;4919;48.792;9.202;2023-02-02T04:49:28;5.03;;;1.37;;
9759;SDS011;4919;48.792;9.202;2023-02-02T04:52:13;5.30;;;1.60;;
9759;SDS011;4919;48.792;9.202;2023-02-02T04:54:58;6.33;;;1.87;;
9759;SDS011;4919;48.792;9.202;2023-02-02T04:57:42;8.77;;;1.87;;
9759;SDS011;4919;48.792;9.202;2023-02-02T05:00:27;5.43;;;1.90;;
9759;SDS011;4919;48.792;9.202;2023-02-02T05:03:12;8.20;;;1.73;;
9759;SDS011;4919;48.792;9.202;2023-02-02T05:06:06;8.93;;;2.80;;
9759;SDS011;4919;48.792;9.202;2023-02-02T05:08:51;5.77;;;1.60;;
9759;SDS011;4919;48.792;9.202;2023-02-02T05:11:36;6.50;;;1.63;;
9759;SDS011;4919;48.792;9.202;2023-02-02T05:14:21;4.27;;;1.47;;
9759;SDS011;4919;48.792;9.202;2023-02-02T05:17:06;5.50;;;1.80;;
9759;SDS011;4919;48.792;9.202;2023-02-02T05:19:51;8.87;;;2.10;;
9759;SDS011;4919;48.792;9.202;2023-02-02T05:22:35;4.87;;;1.53;;
9759;SDS011;4919;48.792;9.202;2023-02-02T05:25:20;5.43;;;1.67;;
9759;SDS011;4919;48.792;9.202;2023-02-02T05:28:05;7.10;;;2.00;;
9759;SDS011;4919;48.792;9.202;2023-02-02T05:30:50;9.47;;;1.80;;
9759;SDS011;4919;48.792;9.202;2023-02-02T05:33:35;7.63;;;1.70;;
9759;SDS011;4919;48.792;9.202;2023-02-02T05:36:20;5.53;;;1.80;;
9759;SDS011;4919;48.792;9.202;2023-02-02T05:39:05;9.03;;;1.90;;
9759;SDS011;4919;48.792;9.202;2023-02-02T05:41:49;6.90;;;1.57;;
9759;SDS011;4919;48.792;9.202;2023-02-02T05:44:34;4.70;;;1.80;;
9759;SDS011;4919;48.792;9.202;2023-02-02T05:47:19;6.03;;;1.83;;
9759;SDS011;4919;48.792;9.202;2023-02-02T05:50:04;7.43;;;1.87;;
9759;SDS011;4919;48.792;9.202;2023-02-02T05:52:49;6.40;;;1.73;;
9759;SDS011;4919;48.792;9.202;2023-02-02T05:55:34;4.53;;;1.70;;
9759;SDS011;4919;48.792;9.202;2023-02-02T05:58:19;6.30;;;2.20;;
9759;SDS011;4919;48.792;9.202;2023-02-02T06:01:04;8.03;;;2.00;;
9759;SDS011;4919;48.792;9.202;2023-02-02T06:03:49;9.30;;;2.27;;
9759;SDS011;4919;48.792;9.202;2023-02-02T06:06:34;5.40;;;1.70;;
9759;SDS011;4919;48.792;9.202;2023-02-02T06:09:18;7.67;;;1.73;;
9759;SDS011;4919;48.792;9.202;2023-02-02T06:12:03;7.63;;;1.77;;
9759;SDS011;4919;48.792;9.202;2023-02-02T06:14:48;8.10;;;1.70;;
9759;SDS011;4919;48.792;9.202;2023-02-02T06:17:33;5.73;;;1.67;;
9759;SDS011;4919;48.792;9.202;2023-02-02T06:20:18;6.80;;;2.03;;
9759;SDS011;4919;48.792;9.202;2023-02-02T06:23:03;8.33;;;2.07;;
9759;SDS011;4919;48.792;9.202;2023-02-02T06:25:48;4.77;;;1.57;;
9759;SDS011;4919;48.792;9.202;2023-02-02T06:28:33;7.50;;;1.97;;
9759;SDS011;4919;48.792;9.202;2023-02-02T06:31:18;6.30;;;2.33;;
9759;SDS011;4919;48.792;9.202;2023-02-02T06:34:03;7.73;;;1.90;;
9759;SDS011;4919;48.792;9.202;2023-02-02T06:36:48;9.17;;;2.23;;
9759;SDS011;4919;48.792;9.202;2023-02-02T06:39:33;7.97;;;2.00;;
9759;SDS011;4919;48.792;9.202;2023-02-02T06:42:18;7.93;;;2.00;;
9759;SDS011;4919;48.792;9.202;2023-02-02T06:45:03;8.33;;;1.60;;
9759;SDS011;4919;48.792;9.202;2023-02-02T06:47:48;7.30;;;1.63;;
9759;SDS011;4919;48.792;9.202;2023-02-02T06:50:33;7.63;;;2.00;;
9759;SDS011;4919;48.792;9.202;2023-02-02T06:53:18;9.47;;;2.57;;
9759;SDS011;4919;48.792;9.202;2023-02-02T06:56:04;6.03;;;2.03;;
9759;SDS011;4919;48.792;9.202;2023-02-02T06:58:50;7.13;;;1.83;;
9759;SDS011;4919;48.792;9.202;2023-02-02T07:01:35;8.53;;;2.00;;
9759;SDS011;4919;48.792;9.202;2023-02-02T07:04:20;6.97;;;2.30;;
9759;SDS011;4919;48.792;9.202;2023-02-02T07:07:04;6.33;;;1.70;;
9759;SDS011;4919;48.792;9.202;2023-02-02T07:09:49;12.67;;;2.47;;
9759;SDS011;4919;48.792;9.202;2023-02-02T07:12:34;8.87;;;1.97;;
9759;SDS011;4919;48.792;9.202;2023-02-02T07:15:19;8.27;;;2.13;;
9759;SDS011;4919;48.792;9.202;2023-02-02T07:18:04;8.07;;;2.30;;
9759;SDS011;4919;48.792;9.202;2023-02-02T07:20:49;7.87;;;1.77;;
9759;SDS011;4919;48.792;9.202;2023-02-02T07:23:34;6.13;;;1.67;;
9759;SDS011;4919;48.792;9.202;2023-02-02T07:26:19;7.47;;;1.80;;
9759;SDS011;4919;48.792;9.202;2023-02-02T07:29:04;10.80;;;2.07;;
9759;SDS011;4919;48.792;9.202;2023-02-02T07:31:49;7.63;;;2.17;;
9759;SDS011;4919;48.792;9.202;2023-02-02T07:34:37;7.97;;;1.87;;
9759;SDS011;4919;48.792;9.202;2023-02-02T07:37:22;6.90;;;2.00;;
9759;SDS011;4919;48.792;9.202;2023-02-02T07:40:07;9.53;;;2.40;;
9759;SDS011;4919;48.792;9.202;2023-02-02T07:42:53;9.00;;;2.60;;
9759;SDS011;4919;48.792;9.202;2023-02-02T07:45:38;7.47;;;1.93;;
9759;SDS011;4919;48.792;9.202;2023-02-02T07:48:22;8.17;;;1.90;;
9759;SDS011;4919;48.792;9.202;2023-02-02T07:51:08;9.97;;;1.97;;
9759;SDS011;4919;48.792;9.202;2023-02-02T07:53:55;7.83;;;2.10;;
9759;SDS011;4919;48.792;9.202;2023-02-02T07:56:41;9.30;;;2.20;;
9759;SDS011;4919;48.792;9.202;2023-02-02T07:59:26;7.27;;;1.90;;
9759;SDS011;4919;48.792;9.202;2023-02-02T08:02:11;11.10;;;3.30;;
9759;SDS011;4919;48.792;9.202;2023-02-02T08:04:55;11.83;;;2.50;;
9759;SDS011;4919;48.792;9.202;2023-02-02T08:07:40;8.50;;;2.20;;
9759;SDS011;4919;48.792;9.202;2023-02-02T08:10:25;7.30;;;1.80;;
9759;SDS011;4919;48.792;9.202;2023-02-02T08:13:10;11.07;;;2.47;;
9759;SDS011;4919;48.792;9.202;2023-02-02T08:15:58;10.73;;;3.20;;
9759;SDS011;4919;48.792;9.202;2023-02-02T08:18:43;8.20;;;2.47;;
9759;SDS011;4919;48.792;9.202;2023-02-02T08:21:28;8.30;;;1.97;;
9759;SDS011;4919;48.792;9.202;2023-02-02T08:24:16;13.73;;;2.43;;
9759;SDS011;4919;48.792;9.202;2023-02-02T08:27:01;22.13;;;6.77;;
9759;SDS011;4919;48.792;9.202;2023-02-02T08:29:46;12.33;;;2.40;;
9759;SDS011;4919;48.792;9.202;2023-02-02T08:32:31;12.67;;;2.63;;
9759;SDS011;4919;48.792;9.202;2023-02-02T08:35:16;10.90;;;2.77;;
9759;SDS011;4919;48.792;9.202;2023-02-02T08:38:00;9.40;;;2.80;;
9759;SDS011;4919;48.792;9.202;2023-02-02T08:40:45;9.47;;;2.30;;
9759;SDS011;4919;48.792;9.202;2023-02-02T08:43:30;7.93;;;1.87;;
9759;SDS011;4919;48.792;9.202;2023-02-02T08:46:15;12.20;;;2.70;;
9759;SDS011;4919;48.792;9.202;2023-02-02T08:49:01;9.20;;;2.53;;
9759;SDS011;4919;48.792;9.202;2023-02-02T08:51:46;7.47;;;1.70;;
9759;SDS011;4919;48.792;9.202;2023-02-02T08:54:31;7.13;;;1.97;;
9759;SDS011;4919;48.792;9.202;2023-02-02T08:57:16;7.27;;;2.10;;
9759;SDS011;4919;48.792;9.202;2023-02-02T09:00:02;8.60;;;1.73;;
9759;SDS011;4919;48.792;9.202;2023-02-02T09:02:50;7.87;;;2.03;;
9759;SDS011;4919;48.792;9.202;2023-02-02T09:05:34;8.40;;;1.90;;
9759;SDS011;4919;48.792;9.202;2023-02-02T09:08:19;5.87;;;1.70;;
9759;SDS011;4919;48.792;9.202;2023-02-02T09:11:05;7.70;;;1.80;;
9759;SDS011;4919;48.792;9.202;2023-02-02T09:13:55;6.03;;;1.90;;
9759;SDS011;4919;48.792;9.202;2023-02-02T09:16:41;5.23;;;1.50;;
9759;SDS011;4919;48.792;9.202;2023-02-02T09:19:25;11.93;;;2.20;;
9759;SDS011;4919;48.792;9.202;2023-02-02T09:22:10;8.20;;;2.00;;
9759;SDS011;4919;48.792;9.202;2023-02-02T09:24:55;5.83;;;1.73;;
9759;SDS011;4919;48.792;9.202;2023-02-02T09:27:40;6.77;;;2.17;;
9759;SDS011;4919;48.792;9.202;2023-02-02T09:30:25;6.47;;;1.67;;
9759;SDS011;4919;48.792;9.202;2023-02-02T09:33:10;4.40;;;1.50;;
9759;SDS011;4919;48.792;9.202;2023-02-02T09:35:55;4.77;;;1.60;;
9759;SDS011;4919;48.792;9.202;2023-02-02T09:38:46;7.83;;;2.27;;
9759;SDS011;4919;48.792;9.202;2023-02-02T09:44:26;9.60;;;2.00;;
9759;SDS011;4919;48.792;9.202;2023-02-02T09:50:42;7.73;;;1.80;;
9759;SDS011;4919;48.792;9.202;2023-02-02T09:53:41;6.23;;;1.90;;
9759;SDS011;4919;48.792;9.202;2023-02-02T09:56:37;8.63;;;1.80;;
9759;SDS011;4919;48.792;9.202;2023-02-02T09:59:33;8.53;;;1.80;;
9759;SDS011;4919;48.792;9.202;2023-02-02T10:02:41;5.27;;;1.50;;
9759;SDS011;4919;48.792;9.202;2023-02-02T10:05:32;3.93;;;1.70;;
9759;SDS011;4919;48.792;9.202;2023-02-02T10:08:47;4.10;;;1.53;;
9759;SDS011;4919;48.792;9.202;2023-02-02T10:11:42;7.70;;;1.80;;
9759;SDS011;4919;48.792;9.202;2023-02-02T10:20:30;5.47;;;1.47;;
9759;SDS011;4919;48.792;9.202;2023-02-02T10:26:15;4.20;;;1.67;;
9759;SDS011;4919;48.792;9.202;2023-02-02T10:46:40;8.20;;;1.80;;
9759;SDS011;4919;48.792;9.202;2023-02-02T10:49:39;5.37;;;1.27;;
9759;SDS011;4919;48.792;9.202;2023-02-02T10:52:25;5.97;;;1.87;;
9759;SDS011;4919;48.792;9.202;2023-02-02T11:01:06;2.37;;;1.60;;
9759;SDS011;4919;48.792;9.202;2023-02-02T11:03:52;5.70;;;1.80;;
9759;SDS011;4919;48.792;9.202;2023-02-02T11:06:37;6.77;;;1.73;;
9759;SDS011;4919;48.792;9.202;2023-02-02T11:09:26;4.33;;;1.20;;
9759;SDS011;4919;48.792;9.202;2023-02-02T11:15:26;4.13;;;1.20;;
9759;SDS011;4919;48.792;9.202;2023-02-02T11:18:13;4.70;;;1.30;;
9759;SDS011;4919;48.792;9.202;2023-02-02T11:21:31;3.63;;;1.60;;
9759;SDS011;4919;48.792;9.202;2023-02-02T11:24:21;9.33;;;1.53;;
9759;SDS011;4919;48.792;9.202;2023-02-02T11:27:13;7.10;;;1.67;;
9759;SDS011;4919;48.792;9.202;2023-02-02T11:30:35;3.50;;;1.27;;
9759;SDS011;4919;48.792;9.202;2023-02-02T11:33:24;3.40;;;1.47;;
9759;SDS011;4919;48.792;9.202;2023-02-02T11:36:18;5.20;;;1.50;;
9759;SDS011;4919;48.792;9.202;2023-02-02T11:39:15;6.57;;;1.60;;
9759;SDS011;4919;48.792;9.202;2023-02-02T11:42:04;5.63;;;1.70;;
9759;SDS011;4919;48.792;9.202;2023-02-02T11:44:57;6.53;;;1.43;;
9759;SDS011;4919;48.792;9.202;2023-02-02T11:47:42;6.33;;;1.70;;
9759;SDS011;4919;48.792;9.202;2023-02-02T11:50:28;5.87;;;1.60;;
9759;SDS011;4919;48.792;9.202;2023-02-02T11:56:20;6.27;;;1.43;;
9759;SDS011;4919;48.792;9.202;2023-02-02T11:59:25;4.13;;;1.30;;
9759;SDS011;4919;48.792;9.202;2023-02-02T12:07:56;5.70;;;1.60;;
9759;SDS011;4919;48.792;9.202;2023-02-02T12:10:42;4.47;;;1.60;;
9759;SDS011;4919;48.792;9.202;2023-02-02T12:13:48;4.07;;;1.30;;
9759;SDS011;4919;48.792;9.202;2023-02-02T12:38:30;4.90;;;1.20;;
9759;SDS011;4919;48.792;9.202;2023-02-02T12:57:11;3.73;;;1.40;;
9759;SDS011;4919;48.792;9.202;2023-02-02T13:09:59;4.47;;;1.60;;
9759;SDS011;4919;48.792;9.202;2023-02-02T13:13:09;4.00;;;1.73;;
9759;SDS011;4919;48.792;9.202;2023-02-02T13:16:07;2.70;;;1.23;;
9759;SDS011;4919;48.792;9.202;2023-02-02T13:18:55;4.47;;;1.50;;
9759;SDS011;4919;48.792;9.202;2023-02-02T13:21:45;4.60;;;1.60;;
9759;SDS011;4919;48.792;9.202;2023-02-02T13:24:33;6.77;;;1.67;;
9759;SDS011;4919;48.792;9.202;2023-02-02T13:27:21;2.63;;;1.30;;
9759;SDS011;4919;48.792;9.202;2023-02-02T13:30:41;4.23;;;1.70;;
9759;SDS011;4919;48.792;9.202;2023-02-02T13:33:26;3.20;;;1.40;;
9759;SDS011;4919;48.792;9.202;2023-02-02T13:36:17;6.90;;;1.63;;
9759;SDS011;4919;48.792;9.202;2023-02-02T13:39:11;3.90;;;1.40;;
9759;SDS011;4919;48.792;9.202;2023-02-02T13:42:04;4.33;;;1.50;;
9759;SDS011;4919;48.792;9.202;2023-02-02T13:44:53;3.73;;;1.50;;
9759;SDS011;4919;48.792;9.202;2023-02-02T13:47:47;5.37;;;1.33;;
9759;SDS011;4919;48.792;9.202;2023-02-02T13:50:43;4.07;;;1.43;;
9759;SDS011;4919;48.792;9.202;2023-02-02T13:54:11;5.53;;;1.80;;
9759;SDS011;4919;48.792;9.202;2023-02-02T13:57:11;4.53;;;1.50;;
9759;SDS011;4919;48.792;9.202;2023-02-02T14:00:28;6.87;;;1.70;;
9759;SDS011;4919;48.792;9.202;2023-02-02T14:03:27;4.10;;;1.40;;
9759;SDS011;4919;48.792;9.202;2023-02-02T14:06:17;5.00;;;1.60;;
9759;SDS011;4919;48.792;9.202;2023-02-02T14:09:03;5.47;;;1.53;;
9759;SDS011;4919;48.792;9.202;2023-02-02T14:12:00;5.13;;;1.53;;
9759;SDS011;4919;48.792;9.202;2023-02-02T14:14:47;4.13;;;1.47;;
9759;SDS011;4919;48.792;9.202;2023-02-02T14:20:40;7.20;;;1.53;;
9759;SDS011;4919;48.792;9.202;2023-02-02T14:26:43;7.13;;;1.97;;
9759;SDS011;4919;48.792;9.202;2023-02-02T14:32:40;4.00;;;1.50;;
9759;SDS011;4919;48.792;9.202;2023-02-02T14:38:12;4.30;;;1.37;;
9759;SDS011;4919;48.792;9.202;2023-02-02T14:41:26;4.13;;;1.40;;
9759;SDS011;4919;48.792;9.202;2023-02-02T14:44:31;5.70;;;1.40;;
9759;SDS011;4919;48.792;9.202;2023-02-02T14:53:26;2.97;;;1.50;;
9759;SDS011;4919;48.792;9.202;2023-02-02T14:56:16;5.37;;;2.07;;
9759;SDS011;4919;48.792;9.202;2023-02-02T14:59:01;4.60;;;1.30;;
9759;SDS011;4919;48.792;9.202;2023-02-02T15:11:05;7.73;;;1.50;;
9759;SDS011;4919;48.792;9.202;2023-02-02T15:13:58;2.43;;;1.33;;
9759;SDS011;4919;48.792;9.202;2023-02-02T15:16:48;5.97;;;1.60;;
9759;SDS011;4919;48.792;9.202;2023-02-02T15:19:34;3.60;;;1.53;;
9759;SDS011;4919;48.792;9.202;2023-02-02T15:28:42;3.80;;;1.43;;
9759;SDS011;4919;48.792;9.202;2023-02-02T15:31:47;4.50;;;1.57;;
9759;SDS011;4919;48.792;9.202;2023-02-02T15:34:41;2.03;;;1.30;;
9759;SDS011;4919;48.792;9.202;2023-02-02T15:37:29;2.87;;;1.40;;
9759;SDS011;4919;48.792;9.202;2023-02-02T15:40:22;5.93;;;1.50;;
9759;SDS011;4919;48.792;9.202;2023-02-02T15:43:09;4.40;;;1.50;;
9759;SDS011;4919;48.792;9.202;2023-02-02T15:46:00;5.83;;;1.50;;
9759;SDS011;4919;48.792;9.202;2023-02-02T15:51:58;4.23;;;1.40;;
9759;SDS011;4919;48.792;9.202;2023-02-02T15:54:53;5.73;;;1.40;;
9759;SDS011;4919;48.792;9.202;2023-02-02T15:57:40;3.67;;;1.20;;
9759;SDS011;4919;48.792;9.202;2023-02-02T16:03:18;4.73;;;2.20;;
9759;SDS011;4919;48.792;9.202;2023-02-02T16:06:10;2.57;;;1.53;;
9759;SDS011;4919;48.792;9.202;2023-02-02T16:08:55;2.30;;;1.60;;
9759;SDS011;4919;48.792;9.202;2023-02-02T16:11:40;5.93;;;2.53;;
9759;SDS011;4919;48.792;9.202;2023-02-02T16:14:26;9.47;;;2.13;;
9759;SDS011;4919;48.792;9.202;2023-02-02T16:17:12;5.40;;;2.30;;
9759;SDS011;4919;48.792;9.202;2023-02-02T16:20:04;4.00;;;2.00;;
9759;SDS011;4919;48.792;9.202;2023-02-02T16:22:57;4.73;;;2.00;;
9759;SDS011;4919;48.792;9.202;2023-02-02T16:25:46;3.23;;;1.93;;
9759;SDS011;4919;48.792;9.202;2023-02-02T16:28:33;8.00;;;1.90;;
9759;SDS011;4919;48.792;9.202;2023-02-02T16:31:18;7.17;;;1.83;;
9759;SDS011;4919;48.792;9.202;2023-02-02T16:34:03;4.53;;;1.63;;
9759;SDS011;4919;48.792;9.202;2023-02-02T16:40:25;3.67;;;1.63;;
9759;SDS011;4919;48.792;9.202;2023-02-02T16:43:17;3.57;;;1.60;;
9759;SDS011;4919;48.792;9.202;2023-02-02T16:46:04;4.53;;;1.60;;
9759;SDS011;4919;48.792;9.202;2023-02-02T16:48:56;3.73;;;1.73;;
9759;SDS011;4919;48.792;9.202;2023-02-02T16:51:44;2.50;;;1.73;;
9759;SDS011;4919;48.792;9.202;2023-02-02T16:54:29;3.30;;;1.67;;
9759;SDS011;4919;48.792;9.202;2023-02-02T16:57:21;7.30;;;2.03;;
9759;SDS011;4919;48.792;9.202;2023-02-02T17:00:17;6.40;;;2.00;;
9759;SDS011;4919;48.792;9.202;2023-02-02T17:03:09;4.53;;;1.73;;
9759;SDS011;4919;48.792;9.202;2023-02-02T17:06:00;4.93;;;1.97;;
9759;SDS011;4919;48.792;9.202;2023-02-02T17:08:45;4.90;;;2.33;;
9759;SDS011;4919;48.792;9.202;2023-02-02T17:11:30;4.17;;;2.30;;
9759;SDS011;4919;48.792;9.202;2023-02-02T17:14:19;4.37;;;2.13;;
9759;SDS011;4919;48.792;9.202;2023-02-02T17:17:09;5.00;;;2.77;;
9759;SDS011;4919;48.792;9.202;2023-02-02T17:19:54;4.60;;;2.63;;
9759;SDS011;4919;48.792;9.202;2023-02-02T17:22:40;7.13;;;2.70;;
9759;SDS011;4919;48.792;9.202;2023-02-02T17:25:28;4.70;;;2.80;;
9759;SDS011;4919;48.792;9.202;2023-02-02T17:28:19;4.07;;;3.20;;
9759;SDS011;4919;48.792;9.202;2023-02-02T17:31:16;5.03;;;3.07;;
9759;SDS011;4919;48.792;9.202;2023-02-02T17:34:00;7.87;;;3.30;;
9759;SDS011;4919;48.792;9.202;2023-02-02T17:36:45;6.37;;;3.57;;
9759;SDS011;4919;48.792;9.202;2023-02-02T17:39:30;9.07;;;2.60;;
9759;SDS011;4919;48.792;9.202;2023-02-02T17:42:19;4.10;;;1.83;;
9759;SDS011;4919;48.792;9.202;2023-02-02T17:45:14;4.43;;;2.50;;
9759;SDS011;4919;48.792;9.202;2023-02-02T17:48:01;6.37;;;1.90;;
9759;SDS011;4919;48.792;9.202;2023-02-02T17:50:46;2.97;;;2.13;;
9759;SDS011;4919;48.792;9.202;2023-02-02T17:53:31;5.30;;;2.10;;
9759;SDS011;4919;48.792;9.202;2023-02-02T17:56:16;5.23;;;2.40;;
9759;SDS011;4919;48.792;9.202;2023-02-02T17:59:02;9.00;;;1.73;;
9759;SDS011;4919;48.792;9.202;2023-02-02T18:01:46;5.00;;;2.17;;
9759;SDS011;4919;48.792;9.202;2023-02-02T18:04:31;4.03;;;2.20;;
9759;SDS011;4919;48.792;9.202;2023-02-02T18:07:16;3.27;;;2.17;;
9759;SDS011;4919;48.792;9.202;2023-02-02T18:10:02;4.80;;;2.40;;
9759;SDS011;4919;48.792;9.202;2023-02-02T18:12:47;5.33;;;2.67;;
9759;SDS011;4919;48.792;9.202;2023-02-02T18:15:32;5.73;;;2.30;;
9759;SDS011;4919;48.792;9.202;2023-02-02T18:18:17;4.37;;;2.63;;
9759;SDS011;4919;48.792;9.202;2023-02-02T18:21:06;7.13;;;4.10;;
9759;SDS011;4919;48.792;9.202;2023-02-02T18:23:52;10.33;;;4.57;;
9759;SDS011;4919;48.792;9.202;2023-02-02T18:26:37;6.97;;;4.30;;
9759;SDS011;4919;48.792;9.202;2023-02-02T18:29:22;6.47;;;4.13;;
9759;SDS011;4919;48.792;9.202;2023-02-02T18:32:07;8.67;;;4.17;;
9759;SDS011;4919;48.792;9.202;2023-02-02T18:34:52;9.53;;;5.17;;
9759;SDS011;4919;48.792;9.202;2023-02-02T18:37:37;10.80;;;6.03;;
9759;SDS011;4919;48.792;9.202;2023-02-02T18:40:22;11.87;;;5.43;;
9759;SDS011;4919;48.792;9.202;2023-02-02T18:43:07;8.47;;;5.13;;
9759;SDS011;4919;48.792;9.202;2023-02-02T18:45:56;9.13;;;4.57;;
9759;SDS011;4919;48.792;9.202;2023-02-02T18:48:42;8.83;;;5.63;;
9759;SDS011;4919;48.792;9.202;2023-02-02T18:51:26;12.50;;;6.30;;
9759;SDS011;4919;48.792;9.202;2023-02-02T18:54:12;10.87;;;5.40;;
9759;SDS011;4919;48.792;9.202;2023-02-02T18:56:57;8.37;;;4.47;;
9759;SDS011;4919;48.792;9.202;2023-02-02T18:59:42;8.20;;;4.43;;
9759;SDS011;4919;48.792;9.202;2023-02-02T19:02:27;7.60;;;4.13;;
9759;SDS011;4919;48.792;9.202;2023-02-02T19:05:12;6.77;;;3.93;;
9759;SDS011;4919;48.792;9.202;2023-02-02T19:07:57;11.43;;;4.17;;
9759;SDS011;4919;48.792;9.202;2023-02-02T19:10:41;7.57;;;4.20;;
9759;SDS011;4919;48.792;9.202;2023-02-02T19:13:27;8.30;;;4.30;;
9759;SDS011;4919;48.792;9.202;2023-02-02T19:16:14;7.67;;;4.27;;
9759;SDS011;4919;48.792;9.202;2023-02-02T19:19:03;5.60;;;3.50;;
9759;SDS011;4919;48.792;9.202;2023-02-02T19:22:15;7.67;;;3.97;;
9759;SDS011;4919;48.792;9.202;2023-02-02T19:25:08;7.23;;;4.53;;
9759;SDS011;4919;48.792;9.202;2023-02-02T19:27:56;6.03;;;3.67;;
9759;SDS011;4919;48.792;9.202;2023-02-02T19:30:41;6.97;;;4.03;;
9759;SDS011;4919;48.792;9.202;2023-02-02T19:33:36;8.30;;;4.67;;
9759;SDS011;4919;48.792;9.202;2023-02-02T19:36:24;11.60;;;5.93;;
9759;SDS011;4919;48.792;9.202;2023-02-02T19:39:11;7.63;;;4.87;;
9759;SDS011;4919;48.792;9.202;2023-02-02T19:41:58;8.67;;;4.40;;
9759;SDS011;4919;48.792;9.202;2023-02-02T19:44:44;6.03;;;4.13;;
9759;SDS011;4919;48.792;9.202;2023-02-02T19:47:30;7.13;;;4.27;;
9759;SDS011;4919;48.792;9.202;2023-02-02T19:50:20;6.97;;;4.20;;
9759;SDS011;4919;48.792;9.202;2023-02-02T19:53:12;6.77;;;3.63;;
9759;SDS011;4919;48.792;9.202;2023-02-02T19:56:19;6.10;;;3.30;;
9759;SDS011;4919;48.792;9.202;2023-02-02T19:59:11;5.57;;;3.50;;
9759;SDS011;4919;48.792;9.202;2023-02-02T20:02:14;7.63;;;3.70;;
9759;SDS011;4919;48.792;9.202;2023-02-02T20:05:17;7.53;;;3.97;;
9759;SDS011;4919;48.792;9.202;2023-02-02T20:11:33;8.57;;;4.40;;
9759;SDS011;4919;48.792;9.202;2023-02-02T20:14:26;7.53;;;3.67;;